createdAt,value
2022-12-18T00:00:07.467Z,-6.14
2022-12-18T00:03:01.835Z,-6.13
2022-12-18T00:05:30.515Z,-6.07
2022-12-18T00:07:58.521Z,-6.02
2022-12-18T00:10:26.599Z,-6.01
2022-12-18T00:12:54.623Z,-6.04
2022-12-18T00:15:22.643Z,-6.03
2022-12-18T00:17:50.709Z,-6.03
2022-12-18T00:20:22.942Z,-6.00
2022-12-18T00:22:50.890Z,-5.97
2022-12-18T00:25:19.379Z,-6.00
2022-12-18T00:27:47.222Z,-6.07
2022-12-18T00:30:15.714Z,-6.13
2022-12-18T00:32:43.767Z,-6.22
2022-12-18T00:35:11.786Z,-6.33
2022-12-18T00:37:39.617Z,-6.38
2022-12-18T00:40:08.928Z,-6.41
2022-12-18T00:42:57.445Z,-6.46
2022-12-18T00:45:32.206Z,-6.61
2022-12-18T00:48:00.260Z,-6.74
2022-12-18T00:50:28.317Z,-6.82
2022-12-18T00:52:56.297Z,-6.86
2022-12-18T00:55:24.168Z,-6.87
2022-12-18T00:57:53.658Z,-6.89
2022-12-18T01:00:23.336Z,-6.88
2022-12-18T01:02:51.374Z,-6.81
2022-12-18T01:05:19.979Z,-6.84
2022-12-18T01:07:47.950Z,-6.84
2022-12-18T01:10:16.279Z,-6.82
2022-12-18T01:12:44.216Z,-6.95
2022-12-18T01:15:14.626Z,-7.09
2022-12-18T01:17:43.516Z,-7.22
2022-12-18T01:20:13.341Z,-7.30
2022-12-18T01:22:41.319Z,-7.35
2022-12-18T01:25:09.843Z,-7.37
2022-12-18T01:27:37.877Z,-7.31
2022-12-18T01:30:06.713Z,-7.24
2022-12-18T01:32:34.872Z,-7.13
2022-12-18T01:35:05.063Z,-7.06
2022-12-18T01:37:33.084Z,-7.08
2022-12-18T01:40:01.514Z,-7.10
2022-12-18T01:42:30.065Z,-7.12
2022-12-18T01:45:15.067Z,-7.22
2022-12-18T01:47:47.658Z,-7.29
2022-12-18T01:50:24.713Z,-7.32
2022-12-18T01:52:56.826Z,-7.33
2022-12-18T01:55:27.527Z,-7.33
2022-12-18T01:57:58.734Z,-7.34
2022-12-18T02:00:28.357Z,-7.31
2022-12-18T02:02:57.412Z,-7.28
2022-12-18T02:05:32.132Z,-7.29
2022-12-18T02:08:16.087Z,-7.23
2022-12-18T02:10:52.508Z,-7.18
2022-12-18T02:13:54.236Z,-7.11
2022-12-18T02:16:31.883Z,-7.07
2022-12-18T02:19:13.849Z,-7.15
2022-12-18T02:21:57.186Z,-7.22
2022-12-18T02:24:39.349Z,-7.19
2022-12-18T02:27:10.442Z,-7.13
2022-12-18T02:29:46.370Z,-7.09
2022-12-18T02:32:19.698Z,-7.11
2022-12-18T02:34:50.157Z,-7.18
2022-12-18T02:37:21.431Z,-7.21
2022-12-18T02:39:53.183Z,-7.25
2022-12-18T02:42:23.421Z,-7.31
2022-12-18T02:44:55.717Z,-7.39
2022-12-18T02:47:32.249Z,-7.38
2022-12-18T02:50:11.163Z,-7.39
2022-12-18T02:52:51.629Z,-7.44
2022-12-18T02:55:29.430Z,-7.57
2022-12-18T02:58:28.274Z,-7.65
2022-12-18T03:01:25.416Z,-7.68
2022-12-18T03:04:00.881Z,-7.68
2022-12-18T03:06:55.122Z,-7.66
2022-12-18T03:09:31.703Z,-7.70
2022-12-18T03:12:25.649Z,-7.69
2022-12-18T03:15:07.277Z,-7.64
2022-12-18T03:17:36.357Z,-7.56
2022-12-18T03:20:11.272Z,-7.45
2022-12-18T03:22:40.025Z,-7.35
2022-12-18T03:25:12.152Z,-7.37
2022-12-18T03:27:48.563Z,-7.45
2022-12-18T03:30:18.755Z,-7.54
2022-12-18T03:33:02.088Z,-7.61
2022-12-18T03:35:36.160Z,-7.67
2022-12-18T03:38:06.214Z,-7.71
2022-12-18T03:41:04.269Z,-7.75
2022-12-18T03:43:58.159Z,-7.76
2022-12-18T03:46:40.218Z,-7.74
2022-12-18T03:49:46.995Z,-7.74
2022-12-18T03:52:27.296Z,-7.69
2022-12-18T03:54:59.365Z,-7.60
2022-12-18T03:57:31.413Z,-7.51
2022-12-18T04:00:08.075Z,-7.39
2022-12-18T04:02:58.058Z,-7.28
2022-12-18T04:05:36.139Z,-7.24
2022-12-18T04:08:05.709Z,-7.22
2022-12-18T04:10:37.441Z,-7.29
2022-12-18T04:13:05.555Z,-7.33
2022-12-18T04:15:37.130Z,-7.32
2022-12-18T04:18:06.424Z,-7.24
2022-12-18T04:20:40.529Z,-7.19
2022-12-18T04:23:09.906Z,-7.15
2022-12-18T04:25:38.518Z,-7.11
2022-12-18T04:28:09.444Z,-7.09
2022-12-18T04:30:37.906Z,-7.10
2022-12-18T04:33:17.220Z,-7.13
2022-12-18T04:35:46.371Z,-7.15
2022-12-18T04:38:15.186Z,-7.19
2022-12-18T04:40:44.452Z,-7.25
2022-12-18T04:43:19.222Z,-7.38
2022-12-18T04:45:47.193Z,-7.47
2022-12-18T04:48:18.713Z,-7.51
2022-12-18T04:50:49.227Z,-7.57
2022-12-18T04:53:17.121Z,-7.62
2022-12-18T04:55:44.936Z,-7.59
2022-12-18T04:58:12.976Z,-7.50
2022-12-18T05:00:40.874Z,-7.40
2022-12-18T05:03:09.163Z,-7.31
2022-12-18T05:05:37.074Z,-7.27
2022-12-18T05:08:05.162Z,-7.25
2022-12-18T05:10:37.923Z,-7.25
2022-12-18T05:13:06.782Z,-7.19
2022-12-18T05:15:35.704Z,-7.17
2022-12-18T05:18:04.935Z,-7.20
2022-12-18T05:20:32.960Z,-7.23
2022-12-18T05:23:00.836Z,-7.15
2022-12-18T05:25:29.071Z,-7.20
2022-12-18T05:27:57.561Z,-7.25
2022-12-18T05:30:26.857Z,-7.21
2022-12-18T05:32:55.444Z,-7.16
2022-12-18T05:35:23.523Z,-7.09
2022-12-18T05:37:51.640Z,-7.06
2022-12-18T05:40:19.639Z,-7.06
2022-12-18T05:42:47.606Z,-7.06
2022-12-18T05:45:15.624Z,-7.07
2022-12-18T05:47:43.529Z,-7.12
2022-12-18T05:50:11.360Z,-7.11
2022-12-18T05:52:39.314Z,-7.10
2022-12-18T05:55:07.590Z,-7.13
2022-12-18T05:57:35.524Z,-7.13
2022-12-18T06:00:04.532Z,-7.14
2022-12-18T06:02:40.181Z,-7.14
2022-12-18T06:05:08.816Z,-7.15
2022-12-18T06:07:36.810Z,-7.14
2022-12-18T06:10:05.216Z,-7.14
2022-12-18T06:12:34.762Z,-7.15
2022-12-18T06:15:02.801Z,-7.13
2022-12-18T06:17:31.967Z,-7.10
2022-12-18T06:20:00.544Z,-7.09
2022-12-18T06:22:28.914Z,-7.09
2022-12-18T06:24:56.737Z,-7.13
2022-12-18T06:27:24.603Z,-7.16
2022-12-18T06:29:52.657Z,-7.16
2022-12-18T06:32:21.015Z,-7.15
2022-12-18T06:34:48.887Z,-7.11
2022-12-18T06:37:16.783Z,-7.07
2022-12-18T06:39:44.698Z,-7.02
2022-12-18T06:42:13.440Z,-6.98
2022-12-18T06:44:41.444Z,-6.95
2022-12-18T06:47:09.407Z,-6.92
2022-12-18T06:49:37.411Z,-6.91
2022-12-18T06:52:05.300Z,-6.90
2022-12-18T06:54:33.247Z,-6.87
2022-12-18T06:57:01.332Z,-6.81
2022-12-18T06:59:29.296Z,-6.77
2022-12-18T07:01:57.502Z,-6.71
2022-12-18T07:04:30.840Z,-6.68
2022-12-18T07:06:58.855Z,-6.69
2022-12-18T07:09:26.825Z,-6.71
2022-12-18T07:11:55.659Z,-6.74
2022-12-18T07:14:24.057Z,-6.73
2022-12-18T07:16:52.245Z,-6.71
2022-12-18T07:19:20.338Z,-6.68
2022-12-18T07:21:48.388Z,-6.65
2022-12-18T07:24:16.464Z,-6.60
2022-12-18T07:26:47.485Z,-6.56
2022-12-18T07:29:15.381Z,-6.53
2022-12-18T07:31:43.447Z,-6.50
2022-12-18T07:34:13.621Z,-6.53
2022-12-18T07:36:41.829Z,-6.51
2022-12-18T07:39:12.328Z,-6.48
2022-12-18T07:41:46.713Z,-6.41
2022-12-18T07:44:17.582Z,-6.34
2022-12-18T07:46:45.540Z,-6.26
2022-12-18T07:49:13.399Z,-6.18
2022-12-18T07:51:41.391Z,-6.15
2022-12-18T07:54:09.325Z,-6.14
2022-12-18T07:56:37.266Z,-6.11
2022-12-18T07:59:05.175Z,-6.10
2022-12-18T08:01:35.934Z,-6.11
2022-12-18T08:04:04.246Z,-6.10
2022-12-18T08:06:33.143Z,-6.02
2022-12-18T08:09:01.031Z,-5.92
2022-12-18T08:11:30.132Z,-5.83
2022-12-18T08:13:58.907Z,-5.76
2022-12-18T08:16:27.879Z,-5.67
2022-12-18T08:18:56.114Z,-5.63
2022-12-18T08:21:31.122Z,-5.56
2022-12-18T08:24:02.723Z,-5.51
2022-12-18T08:26:32.380Z,-5.51
2022-12-18T08:29:01.692Z,-5.49
2022-12-18T08:31:32.651Z,-5.43
2022-12-18T08:34:01.665Z,-5.42
2022-12-18T08:36:29.599Z,-5.38
2022-12-18T08:38:58.598Z,-5.36
2022-12-18T08:41:27.748Z,-5.34
2022-12-18T08:44:14.843Z,-5.34
2022-12-18T08:46:44.535Z,-5.30
2022-12-18T08:49:12.957Z,-5.29
2022-12-18T08:51:41.900Z,-5.24
2022-12-18T08:54:14.859Z,-5.18
2022-12-18T08:56:42.748Z,-5.14
2022-12-18T08:59:15.940Z,-5.08
2022-12-18T09:01:47.786Z,-5.05
2022-12-18T09:04:17.008Z,-5.05
2022-12-18T09:06:45.099Z,-5.04
2022-12-18T09:09:13.549Z,-4.98
2022-12-18T09:11:42.326Z,-4.91
2022-12-18T09:14:11.847Z,-4.88
2022-12-18T09:16:39.893Z,-4.80
2022-12-18T09:19:07.902Z,-4.74
2022-12-18T09:21:42.197Z,-4.70
2022-12-18T09:24:15.488Z,-4.65
2022-12-18T09:26:47.082Z,-4.63
2022-12-18T09:29:18.917Z,-4.67
2022-12-18T09:31:48.012Z,-4.69
2022-12-18T09:34:18.390Z,-4.64
2022-12-18T09:36:46.296Z,-4.57
2022-12-18T09:39:17.356Z,-4.48
2022-12-18T09:41:56.886Z,-4.39
2022-12-18T09:44:44.969Z,-4.33
2022-12-18T09:47:18.713Z,-4.28
2022-12-18T09:49:51.322Z,-4.29
2022-12-18T09:52:45.492Z,-4.28
2022-12-18T09:55:38.939Z,-4.24
2022-12-18T09:58:34.843Z,-4.16
2022-12-18T10:01:02.972Z,-4.15
2022-12-18T10:03:31.054Z,-4.20
2022-12-18T10:06:31.491Z,-4.26
2022-12-18T10:09:09.454Z,-4.25
2022-12-18T10:11:53.255Z,-4.16
2022-12-18T10:14:37.385Z,-4.04
2022-12-18T10:17:17.560Z,-3.96
2022-12-18T10:19:57.956Z,-3.94
2022-12-18T10:22:55.458Z,-3.92
2022-12-18T10:25:35.728Z,-3.86
2022-12-18T10:28:20.444Z,-3.84
2022-12-18T10:30:48.416Z,-3.88
2022-12-18T10:33:21.668Z,-3.86
2022-12-18T10:35:55.857Z,-3.80
2022-12-18T10:38:30.779Z,-3.75
2022-12-18T10:41:06.295Z,-3.71
2022-12-18T10:43:39.055Z,-3.69
2022-12-18T10:46:10.124Z,-3.69
2022-12-18T10:48:50.595Z,-3.69
2022-12-18T10:51:32.525Z,-3.72
2022-12-18T10:54:06.408Z,-3.76
2022-12-18T10:56:38.701Z,-3.72
2022-12-18T10:59:11.614Z,-3.65
2022-12-18T11:01:48.904Z,-3.55
2022-12-18T11:04:27.609Z,-3.49
2022-12-18T11:06:57.904Z,-3.48
2022-12-18T11:09:37.445Z,-3.47
2022-12-18T11:12:18.848Z,-3.53
2022-12-18T11:14:52.039Z,-3.57
2022-12-18T11:17:36.387Z,-3.52
2022-12-18T11:20:20.312Z,-3.39
2022-12-18T11:23:04.625Z,-3.38
2022-12-18T11:25:35.912Z,-3.40
2022-12-18T11:28:39.003Z,-3.37
2022-12-18T11:31:13.651Z,-3.34
2022-12-18T11:34:19.870Z,-3.37
2022-12-18T11:36:47.933Z,-3.45
2022-12-18T11:39:20.721Z,-3.52
2022-12-18T11:42:13.151Z,-3.50
2022-12-18T11:44:49.819Z,-3.42
2022-12-18T11:47:27.879Z,-3.43
2022-12-18T11:50:00.806Z,-3.39
2022-12-18T11:52:40.449Z,-3.32
2022-12-18T11:55:28.711Z,-3.32
2022-12-18T11:58:32.937Z,-3.33
2022-12-18T12:01:16.016Z,-3.33
2022-12-18T12:04:18.593Z,-3.29
2022-12-18T12:07:04.282Z,-3.24
2022-12-18T12:09:47.997Z,-3.21
2022-12-18T12:12:48.934Z,-3.21
2022-12-18T12:15:48.458Z,-3.30
2022-12-18T12:18:28.857Z,-3.35
2022-12-18T12:21:02.994Z,-3.46
2022-12-18T12:23:50.246Z,-3.50
2022-12-18T12:26:39.522Z,-3.44
2022-12-18T12:29:44.332Z,-3.38
2022-12-18T12:32:21.450Z,-3.33
2022-12-18T12:35:15.951Z,-3.31
2022-12-18T12:38:11.823Z,-3.38
2022-12-18T12:41:02.189Z,-3.44
2022-12-18T12:43:37.558Z,-3.51
2022-12-18T12:46:13.606Z,-3.52
2022-12-18T12:48:48.485Z,-3.44
2022-12-18T12:51:26.680Z,-3.42
2022-12-18T12:53:57.641Z,-3.48
2022-12-18T12:57:01.977Z,-3.59
2022-12-18T13:00:14.596Z,-3.70
2022-12-18T13:02:45.392Z,-3.73
2022-12-18T13:05:25.405Z,-3.71
2022-12-18T13:08:12.532Z,-3.66
2022-12-18T13:10:43.013Z,-3.63
2022-12-18T13:13:48.581Z,-3.59
2022-12-18T13:16:12.290Z,-3.58
2022-12-18T13:18:51.366Z,-3.62
2022-12-18T13:21:30.347Z,-3.66
2022-12-18T13:24:22.356Z,-3.74
2022-12-18T13:26:51.152Z,-3.77
2022-12-18T13:29:43.692Z,-3.78
2022-12-18T13:32:30.244Z,-3.78
2022-12-18T13:35:23.244Z,-3.80
2022-12-18T13:37:55.957Z,-3.84
2022-12-18T13:40:49.146Z,-3.87
2022-12-18T13:43:21.177Z,-3.95
2022-12-18T13:46:07.306Z,-4.00
2022-12-18T13:48:39.297Z,-4.04
2022-12-18T13:51:12.524Z,-4.05
2022-12-18T13:54:12.832Z,-4.02
2022-12-18T13:56:46.257Z,-4.04
2022-12-18T13:59:24.613Z,-4.12
2022-12-18T14:02:04.092Z,-4.20
2022-12-18T14:04:36.220Z,-4.20
2022-12-18T14:07:09.752Z,-4.20
2022-12-18T14:09:43.856Z,-4.28
2022-12-18T14:12:38.806Z,-4.30
2022-12-18T14:15:21.025Z,-4.35
2022-12-18T14:17:53.433Z,-4.42
2022-12-18T14:20:22.641Z,-4.46
2022-12-18T14:22:51.447Z,-4.46
2022-12-18T14:25:26.708Z,-4.49
2022-12-18T14:28:07.201Z,-4.51
2022-12-18T14:30:47.704Z,-4.51
2022-12-18T14:33:19.987Z,-4.55
2022-12-18T14:35:56.914Z,-4.60
2022-12-18T14:38:29.848Z,-4.63
2022-12-18T14:41:16.321Z,-4.63
2022-12-18T14:43:47.446Z,-4.62
2022-12-18T14:46:40.038Z,-4.63
2022-12-18T14:49:35.569Z,-4.64
2022-12-18T14:52:26.229Z,-4.66
2022-12-18T14:54:54.543Z,-4.76
2022-12-18T14:57:28.032Z,-4.84
2022-12-18T15:00:18.138Z,-4.87
2022-12-18T15:02:54.878Z,-4.93
2022-12-18T15:05:28.592Z,-5.00
2022-12-18T15:08:00.682Z,-5.09
2022-12-18T15:10:30.364Z,-5.21
2022-12-18T15:13:01.488Z,-5.28
2022-12-18T15:15:38.962Z,-5.31
2022-12-18T15:18:13.593Z,-5.31
2022-12-18T15:20:55.872Z,-5.29
2022-12-18T15:23:39.232Z,-5.26
2022-12-18T15:26:11.944Z,-5.22
2022-12-18T15:28:57.769Z,-5.16
2022-12-18T15:31:36.581Z,-5.09
2022-12-18T15:34:08.705Z,-5.08
2022-12-18T15:36:38.309Z,-5.09
2022-12-18T15:39:07.332Z,-5.15
2022-12-18T15:41:38.283Z,-5.15
2022-12-18T15:44:36.598Z,-5.17
2022-12-18T15:47:09.599Z,-5.19
2022-12-18T15:49:37.786Z,-5.18
2022-12-18T15:52:06.971Z,-5.20
2022-12-18T15:54:54.672Z,-5.20
2022-12-18T15:57:25.839Z,-5.21
2022-12-18T15:59:59.668Z,-5.20
2022-12-18T16:02:32.580Z,-5.19
2022-12-18T16:05:00.920Z,-5.20
2022-12-18T16:07:30.783Z,-5.22
2022-12-18T16:10:02.348Z,-5.27
2022-12-18T16:12:32.713Z,-5.32
2022-12-18T16:15:07.780Z,-5.36
2022-12-18T16:17:38.946Z,-5.38
2022-12-18T16:20:16.571Z,-5.35
2022-12-18T16:22:47.825Z,-5.35
2022-12-18T16:25:27.055Z,-5.39
2022-12-18T16:27:57.432Z,-5.45
2022-12-18T16:30:33.668Z,-5.49
2022-12-18T16:33:09.969Z,-5.53
2022-12-18T16:35:41.341Z,-5.52
2022-12-18T16:38:10.898Z,-5.51
2022-12-18T16:40:59.021Z,-5.52
2022-12-18T16:43:28.316Z,-5.51
2022-12-18T16:45:59.206Z,-5.50
2022-12-18T16:48:27.264Z,-5.48
2022-12-18T16:51:03.895Z,-5.50
2022-12-18T16:53:35.071Z,-5.49
2022-12-18T16:56:05.315Z,-5.48
2022-12-18T16:58:36.144Z,-5.45
2022-12-18T17:01:13.166Z,-5.40
2022-12-18T17:03:42.525Z,-5.33
2022-12-18T17:06:14.126Z,-5.31
2022-12-18T17:08:45.093Z,-5.37
2022-12-18T17:11:14.387Z,-5.40
2022-12-18T17:13:42.682Z,-5.41
2022-12-18T17:16:13.682Z,-5.40
2022-12-18T17:18:42.327Z,-5.38
2022-12-18T17:21:13.233Z,-5.38
2022-12-18T17:23:44.223Z,-5.38
2022-12-18T17:26:15.726Z,-5.38
2022-12-18T17:28:46.847Z,-5.38
2022-12-18T17:31:20.123Z,-5.45
2022-12-18T17:33:58.669Z,-5.48
2022-12-18T17:36:29.824Z,-5.53
2022-12-18T17:39:02.998Z,-5.55
2022-12-18T17:41:32.184Z,-5.54
2022-12-18T17:44:05.073Z,-5.51
2022-12-18T17:46:37.286Z,-5.49
2022-12-18T17:49:07.272Z,-5.46
2022-12-18T17:51:35.633Z,-5.47
2022-12-18T17:54:04.330Z,-5.52
2022-12-18T17:56:34.269Z,-5.58
2022-12-18T17:59:02.611Z,-5.65
2022-12-18T18:01:30.933Z,-5.69
2022-12-18T18:04:00.866Z,-5.68
2022-12-18T18:06:30.401Z,-5.66
2022-12-18T18:09:00.699Z,-5.68
2022-12-18T18:11:48.521Z,-5.66
2022-12-18T18:14:22.526Z,-5.65
2022-12-18T18:16:52.552Z,-5.67
2022-12-18T18:19:23.951Z,-5.71
2022-12-18T18:21:54.380Z,-5.81
2022-12-18T18:24:24.096Z,-5.88
2022-12-18T18:26:55.928Z,-5.91
2022-12-18T18:29:27.846Z,-5.93
2022-12-18T18:31:59.827Z,-5.93
2022-12-18T18:34:31.980Z,-5.92
2022-12-18T18:37:02.596Z,-5.91
2022-12-18T18:39:30.750Z,-5.89
2022-12-18T18:42:00.041Z,-5.93
2022-12-18T18:44:28.225Z,-5.98
2022-12-18T18:46:57.735Z,-6.01
2022-12-18T18:49:28.006Z,-6.03
2022-12-18T18:51:58.036Z,-6.04
2022-12-18T18:54:27.079Z,-6.05
2022-12-18T18:59:43.670Z,-6.09
2022-12-18T19:02:14.141Z,-6.10
2022-12-18T19:04:46.376Z,-6.13
2022-12-18T19:07:19.765Z,-6.12
2022-12-18T19:10:04.470Z,-6.14
2022-12-18T19:12:54.119Z,-6.08
2022-12-18T19:15:23.564Z,-6.01
2022-12-18T19:17:51.603Z,-5.96
2022-12-18T19:20:19.572Z,-5.96
2022-12-18T19:22:54.642Z,-5.97
2022-12-18T19:25:38.137Z,-6.00
2022-12-18T19:28:21.620Z,-6.02
2022-12-18T19:30:59.919Z,-6.06
2022-12-18T19:33:44.008Z,-6.05
2022-12-18T19:36:23.368Z,-6.07
2022-12-18T19:38:54.706Z,-6.10
2022-12-18T19:41:23.927Z,-6.13
2022-12-18T19:43:55.053Z,-6.18
2022-12-18T19:46:24.679Z,-6.23
2022-12-18T19:48:52.765Z,-6.24
2022-12-18T19:51:25.603Z,-6.25
2022-12-18T19:53:59.805Z,-6.27
2022-12-18T19:56:33.019Z,-6.31
2022-12-18T19:59:03.874Z,-6.38
2022-12-18T20:01:33.874Z,-6.44
2022-12-18T20:04:02.141Z,-6.49
2022-12-18T20:06:47.304Z,-6.52
2022-12-18T20:09:15.952Z,-6.52
2022-12-18T20:11:45.282Z,-6.51
2022-12-18T20:14:20.640Z,-6.51
2022-12-18T20:16:53.395Z,-6.51
2022-12-18T20:19:24.699Z,-6.52
2022-12-18T20:21:53.509Z,-6.57
2022-12-18T20:24:21.460Z,-6.62
2022-12-18T20:26:49.599Z,-6.67
2022-12-18T20:29:17.668Z,-6.72
2022-12-18T20:31:45.669Z,-6.74
2022-12-18T20:34:13.689Z,-6.74
2022-12-18T20:36:42.196Z,-6.74
2022-12-18T20:39:12.193Z,-6.75
2022-12-18T20:41:42.627Z,-6.79
2022-12-18T20:44:21.425Z,-6.80
2022-12-18T20:46:56.459Z,-6.83
2022-12-18T20:49:27.035Z,-6.89
2022-12-18T20:51:58.271Z,-6.94
2022-12-18T20:54:27.769Z,-6.99
2022-12-18T20:56:57.795Z,-7.03
2022-12-18T20:59:26.120Z,-7.05
2022-12-18T21:01:55.056Z,-7.05
2022-12-18T21:04:24.135Z,-7.06
2022-12-18T21:06:57.909Z,-7.08
2022-12-18T21:09:31.582Z,-7.10
2022-12-18T21:12:34.922Z,-7.13
2022-12-18T21:15:10.507Z,-7.20
2022-12-18T21:17:44.109Z,-7.23
2022-12-18T21:20:18.139Z,-7.31
2022-12-18T21:22:49.836Z,-7.39
2022-12-18T21:25:18.049Z,-7.41
2022-12-18T21:27:46.150Z,-7.40
2022-12-18T21:30:15.675Z,-7.40
2022-12-18T21:32:44.344Z,-7.40
2022-12-18T21:35:12.430Z,-7.41
2022-12-18T21:37:40.401Z,-7.43
2022-12-18T21:40:09.612Z,-7.47
2022-12-18T21:42:57.232Z,-7.52
2022-12-18T21:45:25.068Z,-7.59
2022-12-18T21:47:53.146Z,-7.62
2022-12-18T21:50:21.012Z,-7.63
2022-12-18T21:52:49.549Z,-7.63
2022-12-18T21:55:17.613Z,-7.62
2022-12-18T21:57:45.564Z,-7.61
2022-12-18T22:00:17.391Z,-7.61
2022-12-18T22:03:17.993Z,-7.62
2022-12-18T22:05:37.762Z,-7.62
2022-12-18T22:08:07.414Z,-7.63
2022-12-18T22:10:37.191Z,-7.67
2022-12-18T22:13:06.383Z,-7.71
2022-12-18T22:15:34.472Z,-7.72
2022-12-18T22:18:02.530Z,-7.73
2022-12-18T22:20:30.544Z,-7.73
2022-12-18T22:22:59.988Z,-7.72
2022-12-18T22:25:35.341Z,-7.72
2022-12-18T22:28:26.493Z,-7.72
2022-12-18T22:30:59.104Z,-7.74
2022-12-18T22:33:28.546Z,-7.78
2022-12-18T22:35:57.448Z,-7.81
2022-12-18T22:38:25.503Z,-7.83
2022-12-18T22:40:55.151Z,-7.85
2022-12-18T22:43:23.870Z,-7.86
2022-12-18T22:45:51.793Z,-7.86
2022-12-18T22:48:20.370Z,-7.83
2022-12-18T22:50:48.304Z,-7.80
2022-12-18T22:53:18.421Z,-7.77
2022-12-18T22:55:46.222Z,-7.73
2022-12-18T22:58:15.181Z,-7.72
2022-12-18T23:00:43.133Z,-7.69
2022-12-18T23:03:11.224Z,-7.62
2022-12-18T23:05:39.948Z,-7.59
2022-12-18T23:08:07.888Z,-7.54
2022-12-18T23:11:01.295Z,-7.49
2022-12-18T23:13:29.337Z,-7.47
2022-12-18T23:15:57.335Z,-7.47
2022-12-18T23:18:25.440Z,-7.47
2022-12-18T23:20:53.397Z,-7.48
2022-12-18T23:23:23.032Z,-7.45
2022-12-18T23:25:51.673Z,-7.42
2022-12-18T23:28:19.515Z,-7.38
2022-12-18T23:30:47.466Z,-7.37
2022-12-18T23:33:15.472Z,-7.34
2022-12-18T23:35:44.110Z,-7.29
2022-12-18T23:38:12.024Z,-7.26
2022-12-18T23:40:39.961Z,-7.23
2022-12-18T23:43:07.858Z,-7.21
2022-12-18T23:45:38.164Z,-7.23
2022-12-18T23:48:06.923Z,-7.23
2022-12-18T23:50:35.691Z,-7.24
2022-12-18T23:53:04.759Z,-7.29
2022-12-18T23:55:42.029Z,-7.31
2022-12-18T23:58:17.892Z,-7.30
